createdAt,value
2018-11-07T00:00:36.732Z,19.12
2018-11-07T00:03:06.639Z,18.73
2018-11-07T00:05:36.589Z,17.70
2018-11-07T00:08:06.829Z,21.82
2018-11-07T00:10:37.072Z,20.62
2018-11-07T00:13:07.258Z,17.17
2018-11-07T00:15:36.969Z,18.95
2018-11-07T00:18:08.520Z,17.94
2018-11-07T00:20:38.985Z,17.02
2018-11-07T00:23:10.310Z,15.04
2018-11-07T00:25:40.973Z,17.35
2018-11-07T00:28:12.393Z,16.88
2018-11-07T00:30:42.945Z,16.80
2018-11-07T00:33:14.417Z,16.26
2018-11-07T00:35:44.954Z,18.17
2018-11-07T00:38:16.355Z,16.40
2018-11-07T00:40:46.948Z,20.55
2018-11-07T00:43:18.325Z,17.86
2018-11-07T00:45:48.918Z,16.10
2018-11-07T00:48:20.325Z,16.62
2018-11-07T00:50:51.306Z,16.93
2018-11-07T00:53:22.173Z,17.52
2018-11-07T00:55:53.013Z,19.55
2018-11-07T00:58:24.635Z,19.00
2018-11-07T01:00:55.116Z,17.00
2018-11-07T01:03:26.784Z,20.00
2018-11-07T01:05:57.236Z,16.42
2018-11-07T01:08:28.193Z,16.75
2018-11-07T01:10:58.969Z,17.02
2018-11-07T01:13:30.549Z,17.98
2018-11-07T01:16:01.006Z,18.75
2018-11-07T01:18:32.513Z,17.40
2018-11-07T01:21:03.073Z,18.15
2018-11-07T01:23:34.576Z,16.02
2018-11-07T01:26:05.084Z,18.32
2018-11-07T01:28:36.506Z,15.66
2018-11-07T01:31:07.120Z,18.27
2018-11-07T01:33:38.329Z,16.22
2018-11-07T01:36:09.002Z,18.23
2018-11-07T01:38:40.380Z,18.04
2018-11-07T01:41:11.026Z,16.97
2018-11-07T01:43:42.553Z,15.46
2018-11-07T01:46:13.022Z,17.48
2018-11-07T01:48:44.481Z,20.62
2018-11-07T01:51:14.973Z,15.55
2018-11-07T01:53:46.506Z,18.48
2018-11-07T01:56:16.948Z,17.90
2018-11-07T01:58:49.293Z,19.22
2018-11-07T02:01:19.030Z,15.97
2018-11-07T02:03:50.573Z,16.70
2018-11-07T02:06:21.038Z,18.05
2018-11-07T02:08:52.333Z,17.90
2018-11-07T02:11:22.885Z,17.73
2018-11-07T02:13:54.392Z,17.54
2018-11-07T02:16:25.021Z,17.98
2018-11-07T02:18:56.557Z,18.72
2018-11-07T02:21:27.066Z,20.75
2018-11-07T02:23:58.363Z,19.02
2018-11-07T02:26:29.371Z,18.10
2018-11-07T02:29:00.118Z,16.10
2018-11-07T02:31:31.229Z,20.40
2018-11-07T02:34:02.653Z,20.30
2018-11-07T02:36:33.097Z,17.48
2018-11-07T02:39:04.782Z,17.52
2018-11-07T02:41:35.236Z,19.95
2018-11-07T02:44:06.273Z,20.60
2018-11-07T02:46:36.954Z,18.17
2018-11-07T02:49:08.372Z,18.04
2018-11-07T02:51:39.053Z,15.58
2018-11-07T02:54:10.519Z,18.68
2018-11-07T02:56:40.995Z,14.38
2018-11-07T02:59:12.336Z,15.34
2018-11-07T03:01:43.034Z,17.85
2018-11-07T03:04:14.285Z,15.84
2018-11-07T03:06:45.192Z,15.58
2018-11-07T03:09:16.002Z,15.72
2018-11-07T03:11:46.173Z,15.53
2018-11-07T03:14:17.068Z,22.13
2018-11-07T03:16:48.611Z,15.60
2018-11-07T03:19:19.153Z,14.83
2018-11-07T03:21:50.335Z,20.82
2018-11-07T03:24:21.874Z,15.20
2018-11-07T03:26:52.347Z,15.90
2018-11-07T03:29:23.223Z,17.05
2018-11-07T03:31:54.007Z,16.55
2018-11-07T03:34:25.405Z,15.22
2018-11-07T03:36:55.941Z,14.30
2018-11-07T03:39:27.486Z,20.32
2018-11-07T03:41:58.046Z,16.65
2018-11-07T03:44:29.682Z,14.64
2018-11-07T03:47:00.110Z,17.32
2018-11-07T03:49:31.348Z,19.44
2018-11-07T03:52:02.038Z,17.90
2018-11-07T03:54:33.569Z,21.02
2018-11-07T03:57:04.246Z,17.20
2018-11-07T03:59:35.117Z,18.70
2018-11-07T04:02:06.468Z,22.64
2018-11-07T04:04:37.209Z,14.60
2018-11-07T04:07:08.064Z,16.80
2018-11-07T04:09:39.297Z,15.56
2018-11-07T04:12:09.977Z,15.80
2018-11-07T04:14:41.262Z,19.70
2018-11-07T04:17:11.942Z,17.32
2018-11-07T04:19:43.598Z,16.62
2018-11-07T04:22:14.033Z,19.10
2018-11-07T04:24:45.479Z,17.68
2018-11-07T04:27:15.925Z,20.75
2018-11-07T04:29:47.346Z,17.14
2018-11-07T04:32:17.943Z,13.55
2018-11-07T04:34:49.535Z,16.22
2018-11-07T04:37:19.987Z,14.33
2018-11-07T04:39:51.771Z,15.28
2018-11-07T04:42:22.215Z,18.20
2018-11-07T04:44:53.125Z,15.88
2018-11-07T04:47:24.513Z,16.96
2018-11-07T04:49:55.095Z,21.97
2018-11-07T04:52:26.320Z,25.34
2018-11-07T04:54:57.589Z,18.98
2018-11-07T04:57:28.699Z,18.05
2018-11-07T04:59:59.236Z,16.75
2018-11-07T05:02:29.953Z,18.73
2018-11-07T05:05:01.408Z,16.14
2018-11-07T05:07:32.035Z,14.87
2018-11-07T05:10:03.482Z,20.24
2018-11-07T05:12:34.000Z,18.82
2018-11-07T05:15:05.852Z,16.64
2018-11-07T05:17:36.297Z,15.34
2018-11-07T05:20:08.809Z,18.12
2018-11-07T05:22:38.586Z,18.07
2018-11-07T05:25:10.274Z,19.12
2018-11-07T05:27:40.334Z,22.20
2018-11-07T05:30:12.148Z,24.35
2018-11-07T05:32:42.316Z,18.85
2018-11-07T05:35:13.101Z,19.48
2018-11-07T05:37:44.265Z,19.50
2018-11-07T05:40:15.190Z,19.12
2018-11-07T05:42:45.956Z,21.73
2018-11-07T05:45:17.500Z,15.02
2018-11-07T05:47:48.061Z,18.32
2018-11-07T05:50:19.488Z,16.48
2018-11-07T05:52:50.115Z,17.98
2018-11-07T05:55:21.336Z,17.10
2018-11-07T05:57:52.004Z,19.17
2018-11-07T06:00:23.405Z,19.62
2018-11-07T06:02:54.005Z,21.68
2018-11-07T06:05:25.427Z,21.08
2018-11-07T06:07:56.102Z,22.00
2018-11-07T06:10:27.348Z,24.78
2018-11-07T06:12:58.028Z,24.32
2018-11-07T06:15:29.399Z,25.12
2018-11-07T06:17:59.995Z,23.83
2018-11-07T06:20:31.471Z,22.74
2018-11-07T06:23:02.092Z,23.52
2018-11-07T06:25:33.125Z,18.75
2018-11-07T06:28:03.959Z,18.17
2018-11-07T06:30:35.424Z,17.94
2018-11-07T06:33:06.223Z,20.70
2018-11-07T06:35:37.158Z,21.40
2018-11-07T06:38:08.386Z,23.26
2018-11-07T06:40:40.253Z,23.25
2018-11-07T06:43:10.070Z,24.87
2018-11-07T06:45:41.422Z,26.72
2018-11-07T06:48:12.038Z,18.50
2018-11-07T06:50:43.330Z,20.54
2018-11-07T06:53:14.072Z,21.15
2018-11-07T06:55:45.142Z,27.00
2018-11-07T06:58:16.018Z,19.12
2018-11-07T07:00:47.481Z,16.34
2018-11-07T07:03:18.070Z,20.85
2018-11-07T07:05:49.400Z,20.54
2018-11-07T07:08:20.011Z,22.13
2018-11-07T07:10:51.409Z,18.34
2018-11-07T07:13:21.993Z,19.42
2018-11-07T07:15:53.388Z,17.12
2018-11-07T07:18:24.060Z,17.37
2018-11-07T07:20:55.363Z,18.16
2018-11-07T07:23:26.072Z,15.75
2018-11-07T07:25:57.398Z,20.88
2018-11-07T07:28:28.008Z,19.07
2018-11-07T07:30:59.480Z,19.26
2018-11-07T07:33:30.017Z,20.12
2018-11-07T07:36:01.414Z,20.98
2018-11-07T07:38:32.048Z,24.02
2018-11-07T07:41:03.806Z,23.62
2018-11-07T07:43:34.300Z,17.37
2018-11-07T07:46:05.153Z,22.85
2018-11-07T07:48:36.342Z,21.15
2018-11-07T07:51:07.226Z,26.50
2018-11-07T07:53:38.186Z,20.82
2018-11-07T07:56:09.472Z,18.60
2018-11-07T07:58:40.276Z,18.98
2018-11-07T08:01:11.209Z,17.42
2018-11-07T08:03:42.054Z,16.85
2018-11-07T08:06:13.576Z,18.86
2018-11-07T08:08:44.595Z,13.65
2018-11-07T08:11:15.541Z,16.55
2018-11-07T08:13:46.046Z,17.65
2018-11-07T08:16:17.406Z,18.08
2018-11-07T08:18:47.938Z,15.32
2018-11-07T08:21:19.504Z,20.16
2018-11-07T08:23:49.536Z,19.33
2018-11-07T08:26:20.162Z,19.32
2018-11-07T08:28:51.138Z,17.92
2018-11-07T08:31:21.992Z,18.25
2018-11-07T08:33:53.515Z,18.68
2018-11-07T08:36:24.006Z,16.80
2018-11-07T08:38:55.416Z,16.44
2018-11-07T08:41:25.998Z,20.57
2018-11-07T08:44:03.170Z,14.82
2018-11-07T08:46:32.971Z,16.37
2018-11-07T08:49:02.790Z,16.00
2018-11-07T08:51:32.890Z,14.90
2018-11-07T08:54:03.288Z,15.93
2018-11-07T08:56:33.058Z,17.55
2018-11-07T08:59:02.845Z,14.35
2018-11-07T09:04:05.093Z,23.75
2018-11-07T09:06:36.470Z,15.82
2018-11-07T09:09:10.585Z,16.67
2018-11-07T09:11:40.552Z,18.90
2018-11-07T09:14:10.730Z,16.17
2018-11-07T09:16:40.579Z,20.70
2018-11-07T09:19:11.240Z,13.53
2018-11-07T09:21:42.024Z,13.40
2018-11-07T09:24:13.348Z,18.02
2018-11-07T09:26:44.123Z,17.32
2018-11-07T09:29:15.096Z,18.20
2018-11-07T09:31:46.150Z,16.17
2018-11-07T09:34:17.125Z,17.30
2018-11-07T09:36:47.967Z,17.20
2018-11-07T09:39:19.409Z,19.34
2018-11-07T09:41:49.983Z,18.27
2018-11-07T09:44:21.494Z,14.20
2018-11-07T09:46:51.982Z,15.18
2018-11-07T09:49:23.598Z,22.94
2018-11-07T09:51:54.073Z,15.75
2018-11-07T09:54:25.610Z,12.86
2018-11-07T09:56:56.272Z,14.60
2018-11-07T09:59:27.112Z,16.45
2018-11-07T10:01:58.061Z,12.90
2018-11-07T10:04:29.379Z,13.62
2018-11-07T10:06:59.989Z,14.45
2018-11-07T10:09:31.312Z,15.40
2018-11-07T10:12:02.002Z,15.13
2018-11-07T10:14:33.514Z,15.82
2018-11-07T10:17:04.008Z,17.48
2018-11-07T10:19:35.397Z,14.14
2018-11-07T10:22:06.327Z,16.30
2018-11-07T10:24:37.422Z,15.68
2018-11-07T10:27:08.143Z,16.50
2018-11-07T10:29:39.313Z,18.20
2018-11-07T10:32:10.360Z,13.22
2018-11-07T10:34:41.249Z,21.10
2018-11-07T10:37:12.039Z,15.28
2018-11-07T10:39:43.462Z,15.34
2018-11-07T10:42:14.461Z,14.50
2018-11-07T10:44:45.029Z,19.12
2018-11-07T10:47:16.311Z,16.52
2018-11-07T10:49:47.073Z,14.55
2018-11-07T10:52:18.293Z,15.72
2018-11-07T10:54:49.254Z,14.50
2018-11-07T10:57:19.929Z,13.90
2018-11-07T10:59:51.578Z,11.54
2018-11-07T11:02:27.248Z,16.25
2018-11-07T11:04:57.134Z,15.70
2018-11-07T11:07:26.972Z,18.43
2018-11-07T11:09:56.847Z,16.43
2018-11-07T11:12:26.731Z,15.23
2018-11-07T11:14:57.144Z,17.62
2018-11-07T11:17:28.557Z,18.98
2018-11-07T11:19:59.146Z,13.32
2018-11-07T11:22:30.012Z,14.28
2018-11-07T11:25:01.264Z,18.02
2018-11-07T11:27:32.194Z,15.93
2018-11-07T11:30:03.085Z,20.08
2018-11-07T11:32:34.414Z,19.52
2018-11-07T11:35:05.495Z,12.85
2018-11-07T11:37:36.204Z,14.03
2018-11-07T11:40:09.282Z,12.15
2018-11-07T11:42:39.366Z,16.30
2018-11-07T11:45:11.429Z,16.30
2018-11-07T11:47:42.666Z,18.87
2018-11-07T11:50:14.987Z,15.15
2018-11-07T11:52:45.906Z,16.05
2018-11-07T11:55:15.709Z,15.80
2018-11-07T12:13:32.588Z,18.27
2018-11-07T12:16:02.392Z,13.73
2018-11-07T12:18:32.442Z,14.35
2018-11-07T12:21:02.541Z,14.93
2018-11-07T12:23:32.474Z,16.03
2018-11-07T12:26:02.602Z,13.33
2018-11-07T12:28:32.479Z,16.23
2018-11-07T12:31:02.582Z,15.20
2018-11-07T12:33:32.498Z,14.33
2018-11-07T12:36:02.850Z,15.17
2018-11-07T12:38:32.805Z,14.40
2018-11-07T12:41:02.540Z,16.07
2018-11-07T12:43:32.958Z,14.27
2018-11-07T12:46:02.700Z,17.17
2018-11-07T12:48:32.544Z,15.23
2018-11-07T12:51:02.676Z,12.50
2018-11-07T12:53:32.778Z,17.20
2018-11-07T12:56:02.594Z,18.43
2018-11-07T12:58:32.462Z,16.97
2018-11-07T13:01:02.557Z,15.73
2018-11-07T13:03:32.473Z,13.17
2018-11-07T13:06:02.481Z,15.90
2018-11-07T13:08:32.954Z,14.60
2018-11-07T13:11:03.644Z,16.43
2018-11-07T13:13:33.610Z,15.50
2018-11-07T13:16:03.394Z,14.47
2018-11-07T13:18:33.498Z,12.13
2018-11-07T13:21:03.463Z,16.17
2018-11-07T13:23:33.514Z,15.83
2018-11-07T13:26:03.653Z,15.67
2018-11-07T13:28:33.583Z,15.07
2018-11-07T13:31:03.559Z,15.37
2018-11-07T13:33:33.516Z,15.67
2018-11-07T13:36:03.829Z,12.60
2018-11-07T13:38:34.144Z,12.10
2018-11-07T13:41:03.945Z,18.77
2018-11-07T13:43:33.871Z,17.13
2018-11-07T13:46:03.781Z,15.90
2018-11-07T13:48:33.650Z,15.27
2018-11-07T13:51:03.522Z,13.07
2018-11-07T13:53:33.705Z,13.40
2018-11-07T13:56:03.445Z,16.50
2018-11-07T13:58:33.554Z,15.63
2018-11-07T14:01:03.480Z,16.50
2018-11-07T14:03:33.705Z,16.70
2018-11-07T14:06:03.652Z,16.03
2018-11-07T14:08:33.607Z,15.20
2018-11-07T14:11:03.553Z,17.43
2018-11-07T14:13:33.549Z,15.63
2018-11-07T14:16:03.680Z,16.20
2018-11-07T14:18:33.553Z,18.27
2018-11-07T14:21:03.662Z,16.67
2018-11-07T14:23:33.768Z,16.03
2018-11-07T14:26:03.695Z,18.23
2018-11-07T14:28:33.816Z,15.40
2018-11-07T14:31:03.705Z,14.37
2018-11-07T14:33:34.057Z,15.83
2018-11-07T14:36:03.812Z,14.50
2018-11-07T14:38:33.618Z,14.77
2018-11-07T14:41:05.158Z,14.43
2018-11-07T14:43:34.958Z,15.97
2018-11-07T14:46:04.817Z,15.27
2018-11-07T14:48:34.629Z,16.33
2018-11-07T14:51:04.454Z,13.90
2018-11-07T14:53:34.653Z,13.90
2018-11-07T14:56:04.635Z,18.07
2018-11-07T14:58:34.508Z,16.13
2018-11-07T15:01:04.529Z,17.97
2018-11-07T15:03:34.445Z,19.90
2018-11-07T15:06:04.646Z,13.77
2018-11-07T15:08:34.600Z,17.73
2018-11-07T15:11:04.654Z,18.43
2018-11-07T15:13:34.526Z,14.77
2018-11-07T15:16:04.546Z,23.23
2018-11-07T15:18:34.566Z,19.97
2018-11-07T15:21:04.428Z,17.43
2018-11-07T15:23:34.680Z,17.23
2018-11-07T15:26:04.630Z,17.17
2018-11-07T15:28:34.402Z,15.23
2018-11-07T15:31:04.509Z,18.37
2018-11-07T15:33:34.361Z,16.93
2018-11-07T15:36:04.485Z,24.47
2018-11-07T15:38:36.205Z,20.40
2018-11-07T15:41:06.309Z,24.30
2018-11-07T15:43:37.308Z,28.55
2018-11-07T15:46:07.918Z,30.27
2018-11-07T15:48:37.854Z,24.93
2018-11-07T15:51:12.210Z,30.77
2018-11-07T15:53:42.954Z,53.03
2018-11-07T15:56:12.822Z,53.07
2018-11-07T15:58:42.611Z,42.40
2018-11-07T16:01:12.589Z,39.63
2018-11-07T16:03:48.827Z,43.37
2018-11-07T16:06:20.104Z,37.80
2018-11-07T16:08:50.005Z,25.53
2018-11-07T16:11:19.818Z,24.17
2018-11-07T16:13:50.219Z,25.80
2018-11-07T16:16:20.443Z,29.13
2018-11-07T16:18:50.547Z,32.63
2018-11-07T16:21:20.475Z,40.87
2018-11-07T16:23:50.491Z,41.87
2018-11-07T16:26:20.684Z,45.13
2018-11-07T16:28:50.474Z,44.90
2018-11-07T16:31:20.775Z,51.57
2018-11-07T16:33:50.531Z,37.47
2018-11-07T16:36:20.450Z,37.17
2018-11-07T16:38:50.463Z,35.70
2018-11-07T16:41:20.537Z,31.93
2018-11-07T16:43:50.628Z,36.50
2018-11-07T16:46:20.598Z,36.37
2018-11-07T16:48:50.735Z,47.80
2018-11-07T16:51:20.544Z,56.53
2018-11-07T16:53:50.497Z,47.70
2018-11-07T16:56:20.830Z,45.73
2018-11-07T16:58:50.575Z,46.58
2018-11-07T17:01:20.530Z,39.50
2018-11-07T17:03:50.805Z,40.08
2018-11-07T17:06:20.691Z,37.33
2018-11-07T17:08:50.694Z,33.17
2018-11-07T17:11:20.566Z,46.73
2018-11-07T17:13:50.378Z,51.13
2018-11-07T17:16:20.245Z,31.70
2018-11-07T17:18:50.085Z,26.57
2018-11-07T17:21:19.923Z,37.47
2018-11-07T17:23:49.805Z,34.50
2018-11-07T17:26:19.778Z,46.37
2018-11-07T17:28:49.584Z,39.33
2018-11-07T17:31:19.887Z,34.10
2018-11-07T17:33:49.728Z,26.30
2018-11-07T17:36:20.273Z,29.60
2018-11-07T17:38:51.053Z,30.32
2018-11-07T17:41:22.386Z,30.88
2018-11-07T17:43:53.138Z,27.27
2018-11-07T17:46:24.152Z,32.38
2018-11-07T17:48:55.176Z,32.58
2018-11-07T17:51:29.691Z,30.92
2018-11-07T17:53:59.593Z,30.92
2018-11-07T17:56:29.908Z,32.60
2018-11-07T17:58:59.984Z,36.57
2018-11-07T18:01:29.939Z,29.20
2018-11-07T18:04:01.391Z,30.52
2018-11-07T18:06:32.111Z,30.60
2018-11-07T18:09:03.082Z,29.40
2018-11-07T18:11:34.084Z,34.43
2018-11-07T18:14:05.629Z,34.32
2018-11-07T18:16:36.157Z,44.77
2018-11-07T18:19:07.430Z,45.17
2018-11-07T18:21:38.118Z,54.50
2018-11-07T18:24:08.965Z,58.98
2018-11-07T18:26:40.462Z,55.78
2018-11-07T18:29:11.071Z,64.85
2018-11-07T18:31:42.502Z,60.40
2018-11-07T18:34:13.057Z,55.85
2018-11-07T18:36:44.438Z,47.68
2018-11-07T18:39:15.443Z,59.08
2018-11-07T18:41:46.296Z,42.53
2018-11-07T18:44:17.078Z,42.88
2018-11-07T18:46:48.156Z,36.83
2018-11-07T18:49:19.040Z,33.73
2018-11-07T18:51:50.056Z,32.88
2018-11-07T18:54:21.303Z,31.86
2018-11-07T18:56:52.194Z,33.67
2018-11-07T18:59:22.984Z,29.45
2018-11-07T19:01:54.442Z,29.86
2018-11-07T19:04:25.958Z,37.40
2018-11-07T19:06:56.508Z,40.26
2018-11-07T19:09:27.059Z,34.63
2018-11-07T19:11:58.407Z,29.94
2018-11-07T19:14:29.013Z,36.95
2018-11-07T19:17:00.480Z,35.72
2018-11-07T19:19:31.125Z,37.08
2018-11-07T19:22:02.828Z,80.85
2018-11-07T19:24:33.336Z,57.60
2018-11-07T19:27:04.162Z,40.60
2018-11-07T19:29:35.065Z,42.90
2018-11-07T19:32:06.225Z,52.67
2018-11-07T19:34:37.130Z,41.08
2018-11-07T19:37:08.480Z,39.08
2018-11-07T19:39:39.099Z,37.75
2018-11-07T19:42:10.644Z,37.64
2018-11-07T19:44:41.790Z,37.48
2018-11-07T19:47:12.493Z,40.05
2018-11-07T19:49:43.140Z,40.45
2018-11-07T19:52:16.410Z,40.15
2018-11-07T19:54:46.911Z,39.07
2018-11-07T19:57:17.176Z,38.13
2018-11-07T19:59:47.210Z,51.70
2018-11-07T20:02:18.259Z,55.52
2018-11-07T20:04:49.246Z,48.33
2018-11-07T20:07:20.098Z,65.30
2018-11-07T20:09:51.974Z,68.67
2018-11-07T20:12:22.405Z,71.77
2018-11-07T20:14:53.052Z,81.63
2018-11-07T20:17:24.064Z,81.35
2018-11-07T20:19:55.008Z,85.62
2018-11-07T20:22:26.378Z,90.00
2018-11-07T20:24:57.523Z,71.40
2018-11-07T20:27:28.488Z,64.15
2018-11-07T20:29:59.452Z,63.00
2018-11-07T20:32:30.304Z,50.67
2018-11-07T20:35:00.972Z,45.12
2018-11-07T20:37:32.451Z,35.42
2018-11-07T20:40:03.103Z,35.83
2018-11-07T20:42:34.101Z,30.10
2018-11-07T20:45:05.652Z,31.28
2018-11-07T20:47:36.446Z,28.45
2018-11-07T20:50:09.309Z,28.20
2018-11-07T20:52:40.433Z,27.70
2018-11-07T20:55:11.633Z,29.87
2018-11-07T20:57:41.967Z,30.77
2018-11-07T21:00:17.029Z,28.57
2018-11-07T21:02:47.219Z,29.37
2018-11-07T21:05:17.195Z,32.20
2018-11-07T21:07:47.619Z,30.75
2018-11-07T21:10:18.740Z,37.90
2018-11-07T21:12:49.088Z,43.13
2018-11-07T21:15:19.906Z,46.37
2018-11-07T21:17:49.938Z,46.40
2018-11-07T21:20:19.803Z,44.87
2018-11-07T21:22:50.429Z,42.30
2018-11-07T21:25:21.038Z,38.98
2018-11-07T21:27:52.369Z,38.58
2018-11-07T21:30:23.025Z,43.55
2018-11-07T21:32:54.507Z,46.56
2018-11-07T21:39:23.854Z,47.50
2018-11-07T21:41:53.736Z,39.07
2018-11-07T21:44:23.762Z,148.97
2018-11-07T21:46:53.796Z,80.17
2018-11-07T21:49:23.695Z,55.40
2018-11-07T21:51:53.765Z,52.47
2018-11-07T21:54:23.550Z,53.00
2018-11-07T21:56:53.786Z,50.93
2018-11-07T21:59:23.566Z,57.43
2018-11-07T22:01:53.657Z,51.70
2018-11-07T22:04:23.566Z,41.03
2018-11-07T22:06:53.601Z,123.73
2018-11-07T22:09:23.668Z,97.07
2018-11-07T22:11:53.649Z,68.97
2018-11-07T22:14:23.632Z,43.97
2018-11-07T22:16:53.581Z,50.20
2018-11-07T22:19:23.793Z,57.50
2018-11-07T22:21:53.645Z,51.13
2018-11-07T22:24:23.610Z,59.33
2018-11-07T22:26:53.818Z,53.90
2018-11-07T22:29:23.773Z,43.07
2018-11-07T22:31:53.706Z,41.37
2018-11-07T22:34:23.786Z,44.03
2018-11-07T22:36:53.611Z,44.33
2018-11-07T22:39:23.718Z,43.03
2018-11-07T22:41:53.590Z,45.50
2018-11-07T22:44:23.529Z,41.27
2018-11-07T22:46:53.696Z,43.93
2018-11-07T22:49:23.673Z,39.97
2018-11-07T22:51:53.682Z,39.07
2018-11-07T22:54:23.565Z,47.80
2018-11-07T22:56:53.602Z,45.47
2018-11-07T22:59:23.637Z,42.87
2018-11-07T23:01:53.489Z,48.03
2018-11-07T23:04:23.627Z,44.73
2018-11-07T23:06:53.616Z,38.30
2018-11-07T23:09:23.581Z,38.20
2018-11-07T23:11:53.654Z,35.90
2018-11-07T23:14:23.526Z,42.17
2018-11-07T23:16:53.777Z,42.40
2018-11-07T23:19:23.628Z,40.03
2018-11-07T23:21:53.659Z,38.37
2018-11-07T23:24:23.521Z,43.37
2018-11-07T23:26:53.562Z,35.90
2018-11-07T23:29:23.661Z,36.23
2018-11-07T23:31:59.656Z,35.65
2018-11-07T23:34:30.184Z,36.07
2018-11-07T23:37:00.529Z,36.77
2018-11-07T23:39:30.610Z,42.10
2018-11-07T23:42:00.579Z,41.27
2018-11-07T23:44:30.549Z,52.87
2018-11-07T23:47:00.590Z,49.97
2018-11-07T23:49:30.560Z,63.07
2018-11-07T23:52:00.745Z,53.97
2018-11-07T23:54:30.515Z,43.07
2018-11-07T23:57:00.541Z,46.70
2018-11-07T23:59:30.643Z,45.07
